Terminal Aerodrome Forecast
Issued by NWS Cleveland, OH

Home | Current Version | Previous Version | Text Only | Print | Product List | Glossary Off
Versions: 1 2 3 4 5 6 7 8 9 10 11 12 13 14 15 16 17 18 19 20

000
FTUS41 KCLE 201100
TAFYNG
TAF
KYNG 201130Z 2012/2112 20007KT P6SM BKN080 OVC110
     FM201400 20012G18KT P6SM VCSH BKN080 OVC120
     FM202100 21012G18KT 6SM -SHRA BKN035 OVC060
     FM210400 24007KT 3SM -SHRA BR BKN010 OVC025
     FM210800 27007KT 3SM -SHRA BR BKN007 OVC012=

USA.gov is the U.S. government's official web portal to all federal, state and local government web resources and services.